sensor_id;sensor_type;location;lat;lon;timestamp;P1;durP1;ratioP1;P2;durP2;ratioP2
10007;SDS011;5043;41.766;26.204;2022-07-29T00:00:45;2.60;;;2.40;;
10007;SDS011;5043;41.766;26.204;2022-07-29T00:03:11;3.65;;;2.58;;
10007;SDS011;5043;41.766;26.204;2022-07-29T00:05:40;2.85;;;2.20;;
10007;SDS011;5043;41.766;26.204;2022-07-29T00:08:07;9.77;;;2.28;;
10007;SDS011;5043;41.766;26.204;2022-07-29T00:10:33;2.88;;;2.35;;
10007;SDS011;5043;41.766;26.204;2022-07-29T00:12:59;4.30;;;2.40;;
10007;SDS011;5043;41.766;26.204;2022-07-29T00:15:24;3.83;;;2.40;;
10007;SDS011;5043;41.766;26.204;2022-07-29T00:17:50;2.88;;;2.55;;
10007;SDS011;5043;41.766;26.204;2022-07-29T00:20:15;4.00;;;2.38;;
10007;SDS011;5043;41.766;26.204;2022-07-29T00:22:41;3.33;;;2.35;;
10007;SDS011;5043;41.766;26.204;2022-07-29T00:25:06;3.08;;;2.83;;
10007;SDS011;5043;41.766;26.204;2022-07-29T00:27:33;3.33;;;2.53;;
10007;SDS011;5043;41.766;26.204;2022-07-29T00:29:59;3.75;;;2.25;;
10007;SDS011;5043;41.766;26.204;2022-07-29T00:32:25;8.52;;;2.53;;
10007;SDS011;5043;41.766;26.204;2022-07-29T00:34:51;3.50;;;2.70;;
10007;SDS011;5043;41.766;26.204;2022-07-29T00:37:35;2.88;;;2.60;;
10007;SDS011;5043;41.766;26.204;2022-07-29T00:40:01;8.60;;;3.13;;
10007;SDS011;5043;41.766;26.204;2022-07-29T00:42:26;4.47;;;2.88;;
10007;SDS011;5043;41.766;26.204;2022-07-29T00:44:52;2.90;;;2.60;;
10007;SDS011;5043;41.766;26.204;2022-07-29T00:47:18;2.90;;;2.63;;
10007;SDS011;5043;41.766;26.204;2022-07-29T00:49:43;4.35;;;3.00;;
10007;SDS011;5043;41.766;26.204;2022-07-29T00:52:09;5.90;;;2.75;;
10007;SDS011;5043;41.766;26.204;2022-07-29T00:54:36;4.85;;;2.63;;
10007;SDS011;5043;41.766;26.204;2022-07-29T00:57:03;3.40;;;2.85;;
10007;SDS011;5043;41.766;26.204;2022-07-29T00:59:30;4.65;;;2.55;;
10007;SDS011;5043;41.766;26.204;2022-07-29T01:01:56;3.90;;;2.53;;
10007;SDS011;5043;41.766;26.204;2022-07-29T01:04:21;3.38;;;3.08;;
10007;SDS011;5043;41.766;26.204;2022-07-29T01:06:47;2.90;;;2.60;;
10007;SDS011;5043;41.766;26.204;2022-07-29T01:09:14;6.00;;;2.65;;
10007;SDS011;5043;41.766;26.204;2022-07-29T01:11:40;4.55;;;2.60;;
10007;SDS011;5043;41.766;26.204;2022-07-29T01:14:07;5.55;;;2.65;;
10007;SDS011;5043;41.766;26.204;2022-07-29T01:16:37;4.00;;;2.65;;
10007;SDS011;5043;41.766;26.204;2022-07-29T01:31:28;3.08;;;2.75;;
10007;SDS011;5043;41.766;26.204;2022-07-29T01:34:10;3.85;;;3.00;;
10007;SDS011;5043;41.766;26.204;2022-07-29T01:36:47;2.92;;;2.70;;
10007;SDS011;5043;41.766;26.204;2022-07-29T01:44:37;7.57;;;3.20;;
10007;SDS011;5043;41.766;26.204;2022-07-29T01:47:11;6.72;;;3.28;;
10007;SDS011;5043;41.766;26.204;2022-07-29T01:49:43;3.17;;;2.92;;
10007;SDS011;5043;41.766;26.204;2022-07-29T01:52:23;3.63;;;3.15;;
10007;SDS011;5043;41.766;26.204;2022-07-29T01:54:57;5.53;;;3.13;;
10007;SDS011;5043;41.766;26.204;2022-07-29T01:57:28;3.15;;;2.88;;
10007;SDS011;5043;41.766;26.204;2022-07-29T01:59:57;5.10;;;3.22;;
10007;SDS011;5043;41.766;26.204;2022-07-29T02:02:25;4.10;;;3.17;;
10007;SDS011;5043;41.766;26.204;2022-07-29T02:04:53;5.57;;;3.20;;
10007;SDS011;5043;41.766;26.204;2022-07-29T02:07:21;7.68;;;3.17;;
10007;SDS011;5043;41.766;26.204;2022-07-29T02:09:50;4.30;;;3.00;;
10007;SDS011;5043;41.766;26.204;2022-07-29T02:12:16;3.38;;;3.08;;
10007;SDS011;5043;41.766;26.204;2022-07-29T02:14:50;5.30;;;3.05;;
10007;SDS011;5043;41.766;26.204;2022-07-29T02:17:21;3.72;;;3.13;;
10007;SDS011;5043;41.766;26.204;2022-07-29T02:19:50;4.18;;;3.10;;
10007;SDS011;5043;41.766;26.204;2022-07-29T02:22:19;4.47;;;3.35;;
10007;SDS011;5043;41.766;26.204;2022-07-29T02:24:46;6.22;;;3.17;;
10007;SDS011;5043;41.766;26.204;2022-07-29T02:27:13;5.03;;;3.45;;
10007;SDS011;5043;41.766;26.204;2022-07-29T02:29:40;4.78;;;4.15;;
10007;SDS011;5043;41.766;26.204;2022-07-29T02:32:06;6.85;;;2.88;;
10007;SDS011;5043;41.766;26.204;2022-07-29T02:34:35;3.30;;;2.97;;
10007;SDS011;5043;41.766;26.204;2022-07-29T02:37:03;6.07;;;3.50;;
10007;SDS011;5043;41.766;26.204;2022-07-29T02:39:29;3.30;;;3.00;;
10007;SDS011;5043;41.766;26.204;2022-07-29T02:42:01;5.93;;;3.40;;
10007;SDS011;5043;41.766;26.204;2022-07-29T02:44:32;3.40;;;3.10;;
10007;SDS011;5043;41.766;26.204;2022-07-29T02:49:52;3.72;;;3.42;;
10007;SDS011;5043;41.766;26.204;2022-07-29T02:57:37;3.72;;;3.03;;
10007;SDS011;5043;41.766;26.204;2022-07-29T03:00:08;14.98;;;4.15;;
10007;SDS011;5043;41.766;26.204;2022-07-29T03:02:40;4.63;;;3.50;;
10007;SDS011;5043;41.766;26.204;2022-07-29T03:05:11;4.18;;;3.30;;
10007;SDS011;5043;41.766;26.204;2022-07-29T03:07:43;6.20;;;4.10;;
10007;SDS011;5043;41.766;26.204;2022-07-29T03:10:11;4.65;;;3.80;;
10007;SDS011;5043;41.766;26.204;2022-07-29T03:12:38;5.63;;;4.22;;
10007;SDS011;5043;41.766;26.204;2022-07-29T03:15:05;7.18;;;4.25;;
10007;SDS011;5043;41.766;26.204;2022-07-29T03:17:31;6.88;;;4.10;;
10007;SDS011;5043;41.766;26.204;2022-07-29T03:19:58;4.88;;;3.95;;
10007;SDS011;5043;41.766;26.204;2022-07-29T03:22:24;4.85;;;4.03;;
10007;SDS011;5043;41.766;26.204;2022-07-29T03:24:50;4.60;;;3.75;;
10007;SDS011;5043;41.766;26.204;2022-07-29T03:27:16;6.55;;;4.28;;
10007;SDS011;5043;41.766;26.204;2022-07-29T03:29:41;4.20;;;3.90;;
10007;SDS011;5043;41.766;26.204;2022-07-29T03:32:07;6.32;;;3.85;;
10007;SDS011;5043;41.766;26.204;2022-07-29T03:34:32;8.25;;;4.78;;
10007;SDS011;5043;41.766;26.204;2022-07-29T03:36:58;6.88;;;4.20;;
10007;SDS011;5043;41.766;26.204;2022-07-29T03:39:24;7.82;;;4.40;;
10007;SDS011;5043;41.766;26.204;2022-07-29T03:41:54;6.50;;;4.60;;
10007;SDS011;5043;41.766;26.204;2022-07-29T03:44:22;5.03;;;4.55;;
10007;SDS011;5043;41.766;26.204;2022-07-29T03:46:49;6.35;;;4.53;;
10007;SDS011;5043;41.766;26.204;2022-07-29T03:49:17;5.65;;;4.40;;
10007;SDS011;5043;41.766;26.204;2022-07-29T03:51:44;5.22;;;4.43;;
10007;SDS011;5043;41.766;26.204;2022-07-29T03:54:10;5.65;;;4.90;;
10007;SDS011;5043;41.766;26.204;2022-07-29T03:56:40;4.68;;;4.00;;
10007;SDS011;5043;41.766;26.204;2022-07-29T03:59:11;7.43;;;4.95;;
10007;SDS011;5043;41.766;26.204;2022-07-29T04:01:37;6.63;;;4.18;;
10007;SDS011;5043;41.766;26.204;2022-07-29T04:04:04;7.43;;;4.40;;
10007;SDS011;5043;41.766;26.204;2022-07-29T04:06:43;7.15;;;4.65;;
10007;SDS011;5043;41.766;26.204;2022-07-29T04:09:10;7.20;;;4.60;;
10007;SDS011;5043;41.766;26.204;2022-07-29T04:11:38;5.47;;;4.07;;
10007;SDS011;5043;41.766;26.204;2022-07-29T04:14:06;5.28;;;4.25;;
10007;SDS011;5043;41.766;26.204;2022-07-29T04:16:31;5.43;;;3.88;;
10007;SDS011;5043;41.766;26.204;2022-07-29T04:18:57;4.47;;;3.92;;
10007;SDS011;5043;41.766;26.204;2022-07-29T04:21:23;12.32;;;4.63;;
10007;SDS011;5043;41.766;26.204;2022-07-29T04:23:48;5.03;;;3.83;;
10007;SDS011;5043;41.766;26.204;2022-07-29T04:26:18;9.65;;;4.10;;
10007;SDS011;5043;41.766;26.204;2022-07-29T04:28:44;9.85;;;4.20;;
10007;SDS011;5043;41.766;26.204;2022-07-29T04:31:10;4.95;;;4.18;;
10007;SDS011;5043;41.766;26.204;2022-07-29T04:33:36;6.65;;;3.75;;
10007;SDS011;5043;41.766;26.204;2022-07-29T04:36:02;4.50;;;3.80;;
10007;SDS011;5043;41.766;26.204;2022-07-29T04:38:28;7.70;;;3.97;;
10007;SDS011;5043;41.766;26.204;2022-07-29T04:40:53;11.57;;;4.70;;
10007;SDS011;5043;41.766;26.204;2022-07-29T04:43:18;7.80;;;4.10;;
10007;SDS011;5043;41.766;26.204;2022-07-29T04:45:44;8.35;;;4.03;;
10007;SDS011;5043;41.766;26.204;2022-07-29T04:48:10;7.03;;;4.05;;
10007;SDS011;5043;41.766;26.204;2022-07-29T04:50:37;8.27;;;4.07;;
10007;SDS011;5043;41.766;26.204;2022-07-29T04:53:03;7.75;;;5.03;;
10007;SDS011;5043;41.766;26.204;2022-07-29T04:55:28;8.30;;;4.38;;
10007;SDS011;5043;41.766;26.204;2022-07-29T04:57:54;4.70;;;4.15;;
10007;SDS011;5043;41.766;26.204;2022-07-29T05:00:19;4.78;;;4.28;;
10007;SDS011;5043;41.766;26.204;2022-07-29T05:02:45;5.68;;;4.43;;
10007;SDS011;5043;41.766;26.204;2022-07-29T05:05:10;5.25;;;4.75;;
10007;SDS011;5043;41.766;26.204;2022-07-29T05:07:36;7.15;;;4.68;;
10007;SDS011;5043;41.766;26.204;2022-07-29T05:10:04;9.60;;;4.97;;
10007;SDS011;5043;41.766;26.204;2022-07-29T05:12:30;6.55;;;5.32;;
10007;SDS011;5043;41.766;26.204;2022-07-29T05:14:56;8.25;;;7.43;;
10007;SDS011;5043;41.766;26.204;2022-07-29T05:17:22;6.38;;;5.70;;
10007;SDS011;5043;41.766;26.204;2022-07-29T05:19:47;8.32;;;5.70;;
10007;SDS011;5043;41.766;26.204;2022-07-29T05:22:13;7.10;;;5.43;;
10007;SDS011;5043;41.766;26.204;2022-07-29T05:24:38;8.13;;;4.82;;
10007;SDS011;5043;41.766;26.204;2022-07-29T05:27:04;7.68;;;5.20;;
10007;SDS011;5043;41.766;26.204;2022-07-29T05:29:29;8.50;;;4.53;;
10007;SDS011;5043;41.766;26.204;2022-07-29T05:31:55;7.07;;;4.57;;
10007;SDS011;5043;41.766;26.204;2022-07-29T05:34:20;8.23;;;4.43;;
10007;SDS011;5043;41.766;26.204;2022-07-29T05:36:45;12.93;;;5.43;;
10007;SDS011;5043;41.766;26.204;2022-07-29T05:39:11;12.20;;;3.95;;
10007;SDS011;5043;41.766;26.204;2022-07-29T05:41:37;4.60;;;3.65;;
10007;SDS011;5043;41.766;26.204;2022-07-29T05:44:03;4.82;;;3.83;;
10007;SDS011;5043;41.766;26.204;2022-07-29T05:46:29;7.60;;;4.05;;
10007;SDS011;5043;41.766;26.204;2022-07-29T05:48:54;4.38;;;3.55;;
10007;SDS011;5043;41.766;26.204;2022-07-29T05:51:20;4.45;;;3.42;;
10007;SDS011;5043;41.766;26.204;2022-07-29T05:53:45;5.15;;;3.67;;
10007;SDS011;5043;41.766;26.204;2022-07-29T05:56:11;4.55;;;3.60;;
10007;SDS011;5043;41.766;26.204;2022-07-29T05:58:36;5.57;;;3.70;;
10007;SDS011;5043;41.766;26.204;2022-07-29T06:01:02;6.35;;;3.70;;
10007;SDS011;5043;41.766;26.204;2022-07-29T06:03:27;4.63;;;3.58;;
10007;SDS011;5043;41.766;26.204;2022-07-29T06:05:53;4.80;;;3.47;;
10007;SDS011;5043;41.766;26.204;2022-07-29T06:08:19;4.45;;;3.55;;
10007;SDS011;5043;41.766;26.204;2022-07-29T06:10:44;8.32;;;3.78;;
10007;SDS011;5043;41.766;26.204;2022-07-29T06:13:10;5.25;;;4.10;;
10007;SDS011;5043;41.766;26.204;2022-07-29T06:15:37;5.13;;;3.60;;
10007;SDS011;5043;41.766;26.204;2022-07-29T06:18:02;3.42;;;3.13;;
10007;SDS011;5043;41.766;26.204;2022-07-29T06:20:28;7.13;;;3.38;;
10007;SDS011;5043;41.766;26.204;2022-07-29T06:22:55;4.63;;;3.20;;
10007;SDS011;5043;41.766;26.204;2022-07-29T06:25:20;3.97;;;3.58;;
10007;SDS011;5043;41.766;26.204;2022-07-29T06:27:46;5.82;;;3.47;;
10007;SDS011;5043;41.766;26.204;2022-07-29T06:30:11;9.38;;;3.47;;
10007;SDS011;5043;41.766;26.204;2022-07-29T06:32:37;4.25;;;3.85;;
10007;SDS011;5043;41.766;26.204;2022-07-29T06:35:03;4.30;;;3.75;;
10007;SDS011;5043;41.766;26.204;2022-07-29T06:37:28;8.63;;;4.32;;
10007;SDS011;5043;41.766;26.204;2022-07-29T06:39:54;5.68;;;3.72;;
10007;SDS011;5043;41.766;26.204;2022-07-29T06:42:43;7.93;;;3.88;;
10007;SDS011;5043;41.766;26.204;2022-07-29T06:45:09;8.35;;;3.85;;
10007;SDS011;5043;41.766;26.204;2022-07-29T06:47:36;4.72;;;3.55;;
10007;SDS011;5043;41.766;26.204;2022-07-29T06:50:02;4.10;;;3.38;;
10007;SDS011;5043;41.766;26.204;2022-07-29T06:52:28;5.82;;;3.03;;
10007;SDS011;5043;41.766;26.204;2022-07-29T06:54:53;8.10;;;4.07;;
10007;SDS011;5043;41.766;26.204;2022-07-29T06:57:20;5.82;;;3.30;;
10007;SDS011;5043;41.766;26.204;2022-07-29T06:59:46;4.60;;;3.35;;
10007;SDS011;5043;41.766;26.204;2022-07-29T07:02:11;5.05;;;2.85;;
10007;SDS011;5043;41.766;26.204;2022-07-29T07:04:37;4.05;;;3.65;;
10007;SDS011;5043;41.766;26.204;2022-07-29T07:07:02;6.10;;;3.47;;
10007;SDS011;5043;41.766;26.204;2022-07-29T07:09:27;3.92;;;2.83;;
10007;SDS011;5043;41.766;26.204;2022-07-29T07:11:53;3.13;;;2.83;;
10007;SDS011;5043;41.766;26.204;2022-07-29T07:14:18;3.83;;;3.28;;
10007;SDS011;5043;41.766;26.204;2022-07-29T07:16:44;3.30;;;3.00;;
10007;SDS011;5043;41.766;26.204;2022-07-29T07:19:09;3.75;;;2.45;;
10007;SDS011;5043;41.766;26.204;2022-07-29T07:21:35;3.45;;;3.15;;
10007;SDS011;5043;41.766;26.204;2022-07-29T07:24:00;4.70;;;2.83;;
10007;SDS011;5043;41.766;26.204;2022-07-29T07:26:25;3.75;;;2.78;;
10007;SDS011;5043;41.766;26.204;2022-07-29T07:28:51;3.35;;;2.88;;
10007;SDS011;5043;41.766;26.204;2022-07-29T07:31:17;6.15;;;2.67;;
10007;SDS011;5043;41.766;26.204;2022-07-29T07:33:43;2.80;;;2.60;;
10007;SDS011;5043;41.766;26.204;2022-07-29T07:36:08;5.35;;;2.95;;
10007;SDS011;5043;41.766;26.204;2022-07-29T07:38:34;4.47;;;2.90;;
10007;SDS011;5043;41.766;26.204;2022-07-29T07:41:00;9.02;;;3.05;;
10007;SDS011;5043;41.766;26.204;2022-07-29T07:43:25;6.30;;;2.92;;
10007;SDS011;5043;41.766;26.204;2022-07-29T07:45:51;4.03;;;2.65;;
10007;SDS011;5043;41.766;26.204;2022-07-29T07:48:16;3.97;;;3.17;;
10007;SDS011;5043;41.766;26.204;2022-07-29T07:50:42;6.32;;;3.00;;
10007;SDS011;5043;41.766;26.204;2022-07-29T07:53:08;3.15;;;2.85;;
10007;SDS011;5043;41.766;26.204;2022-07-29T07:55:38;3.65;;;2.47;;
10007;SDS011;5043;41.766;26.204;2022-07-29T07:58:05;3.13;;;2.83;;
10007;SDS011;5043;41.766;26.204;2022-07-29T08:00:31;5.25;;;2.90;;
10007;SDS011;5043;41.766;26.204;2022-07-29T08:02:57;3.20;;;2.90;;
10007;SDS011;5043;41.766;26.204;2022-07-29T08:05:23;4.25;;;2.95;;
10007;SDS011;5043;41.766;26.204;2022-07-29T08:07:49;5.78;;;2.70;;
10007;SDS011;5043;41.766;26.204;2022-07-29T08:10:15;6.43;;;2.67;;
10007;SDS011;5043;41.766;26.204;2022-07-29T08:13:01;4.20;;;2.97;;
10007;SDS011;5043;41.766;26.204;2022-07-29T08:15:34;2.53;;;2.25;;
10007;SDS011;5043;41.766;26.204;2022-07-29T08:17:59;4.05;;;2.58;;
10007;SDS011;5043;41.766;26.204;2022-07-29T08:20:25;2.67;;;2.47;;
10007;SDS011;5043;41.766;26.204;2022-07-29T08:22:51;2.88;;;2.40;;
10007;SDS011;5043;41.766;26.204;2022-07-29T08:25:18;3.05;;;2.60;;
10007;SDS011;5043;41.766;26.204;2022-07-29T08:27:45;4.22;;;2.65;;
10007;SDS011;5043;41.766;26.204;2022-07-29T08:30:11;2.90;;;2.58;;
10007;SDS011;5043;41.766;26.204;2022-07-29T08:32:37;2.72;;;2.53;;
10007;SDS011;5043;41.766;26.204;2022-07-29T08:35:02;6.10;;;2.95;;
10007;SDS011;5043;41.766;26.204;2022-07-29T08:37:43;7.22;;;2.75;;
10007;SDS011;5043;41.766;26.204;2022-07-29T08:40:10;2.20;;;2.10;;
10007;SDS011;5043;41.766;26.204;2022-07-29T08:42:36;5.53;;;2.85;;
10007;SDS011;5043;41.766;26.204;2022-07-29T08:45:04;3.22;;;2.50;;
10007;SDS011;5043;41.766;26.204;2022-07-29T08:47:30;3.63;;;2.38;;
10007;SDS011;5043;41.766;26.204;2022-07-29T08:49:56;3.22;;;2.58;;
10007;SDS011;5043;41.766;26.204;2022-07-29T08:52:21;3.20;;;2.75;;
10007;SDS011;5043;41.766;26.204;2022-07-29T08:54:50;3.10;;;2.80;;
10007;SDS011;5043;41.766;26.204;2022-07-29T08:57:17;3.05;;;2.70;;
10007;SDS011;5043;41.766;26.204;2022-07-29T08:59:43;3.50;;;2.33;;
10007;SDS011;5043;41.766;26.204;2022-07-29T09:02:21;5.53;;;2.95;;
10007;SDS011;5043;41.766;26.204;2022-07-29T09:04:49;3.63;;;3.15;;
10007;SDS011;5043;41.766;26.204;2022-07-29T09:07:15;4.75;;;3.45;;
10007;SDS011;5043;41.766;26.204;2022-07-29T09:09:42;6.85;;;3.65;;
10007;SDS011;5043;41.766;26.204;2022-07-29T09:12:09;2.97;;;2.63;;
10007;SDS011;5043;41.766;26.204;2022-07-29T09:14:36;2.88;;;2.33;;
10007;SDS011;5043;41.766;26.204;2022-07-29T09:17:05;3.65;;;2.65;;
10007;SDS011;5043;41.766;26.204;2022-07-29T09:19:32;4.43;;;2.50;;
10007;SDS011;5043;41.766;26.204;2022-07-29T09:22:00;3.78;;;2.38;;
10007;SDS011;5043;41.766;26.204;2022-07-29T09:24:45;4.90;;;2.70;;
10007;SDS011;5043;41.766;26.204;2022-07-29T09:27:25;5.68;;;2.30;;
10007;SDS011;5043;41.766;26.204;2022-07-29T09:32:26;3.42;;;2.80;;
10007;SDS011;5043;41.766;26.204;2022-07-29T09:37:41;4.60;;;2.88;;
10007;SDS011;5043;41.766;26.204;2022-07-29T09:40:12;3.72;;;2.63;;
10007;SDS011;5043;41.766;26.204;2022-07-29T09:42:42;3.60;;;2.90;;
10007;SDS011;5043;41.766;26.204;2022-07-29T09:45:07;4.72;;;3.10;;
10007;SDS011;5043;41.766;26.204;2022-07-29T09:47:44;2.78;;;2.38;;
10007;SDS011;5043;41.766;26.204;2022-07-29T09:50:13;2.72;;;2.30;;
10007;SDS011;5043;41.766;26.204;2022-07-29T09:52:47;2.72;;;2.53;;
10007;SDS011;5043;41.766;26.204;2022-07-29T09:55:15;2.47;;;2.03;;
10007;SDS011;5043;41.766;26.204;2022-07-29T09:57:42;3.70;;;2.72;;
10007;SDS011;5043;41.766;26.204;2022-07-29T10:00:09;8.85;;;2.25;;
10007;SDS011;5043;41.766;26.204;2022-07-29T10:02:38;5.38;;;2.40;;
10007;SDS011;5043;41.766;26.204;2022-07-29T10:05:05;2.80;;;2.50;;
10007;SDS011;5043;41.766;26.204;2022-07-29T10:10:18;3.75;;;2.55;;
10007;SDS011;5043;41.766;26.204;2022-07-29T10:12:48;2.80;;;2.60;;
10007;SDS011;5043;41.766;26.204;2022-07-29T10:15:21;3.90;;;2.63;;
10007;SDS011;5043;41.766;26.204;2022-07-29T10:17:49;4.07;;;2.50;;
10007;SDS011;5043;41.766;26.204;2022-07-29T10:20:15;2.90;;;2.15;;
10007;SDS011;5043;41.766;26.204;2022-07-29T10:22:42;5.40;;;2.35;;
10007;SDS011;5043;41.766;26.204;2022-07-29T10:25:09;2.30;;;2.10;;
10007;SDS011;5043;41.766;26.204;2022-07-29T10:27:36;4.30;;;2.35;;
10007;SDS011;5043;41.766;26.204;2022-07-29T10:30:03;5.95;;;2.20;;
10007;SDS011;5043;41.766;26.204;2022-07-29T10:35:21;2.60;;;2.20;;
10007;SDS011;5043;41.766;26.204;2022-07-29T10:43:42;2.17;;;1.98;;
10007;SDS011;5043;41.766;26.204;2022-07-29T10:46:10;3.42;;;2.08;;
10007;SDS011;5043;41.766;26.204;2022-07-29T10:54:18;7.22;;;2.58;;
10007;SDS011;5043;41.766;26.204;2022-07-29T11:05:13;2.63;;;2.42;;
10007;SDS011;5043;41.766;26.204;2022-07-29T11:10:37;6.25;;;2.33;;
10007;SDS011;5043;41.766;26.204;2022-07-29T11:13:04;2.15;;;1.95;;
10007;SDS011;5043;41.766;26.204;2022-07-29T11:15:29;8.48;;;2.30;;
10007;SDS011;5043;41.766;26.204;2022-07-29T11:18:19;3.35;;;2.53;;
10007;SDS011;5043;41.766;26.204;2022-07-29T11:20:46;9.93;;;9.10;;
10007;SDS011;5043;41.766;26.204;2022-07-29T11:23:26;5.15;;;2.50;;
10007;SDS011;5043;41.766;26.204;2022-07-29T11:28:59;2.85;;;2.15;;
10007;SDS011;5043;41.766;26.204;2022-07-29T11:31:32;2.55;;;2.28;;
10007;SDS011;5043;41.766;26.204;2022-07-29T11:39:41;3.45;;;2.20;;
10007;SDS011;5043;41.766;26.204;2022-07-29T11:47:53;4.28;;;2.40;;
10007;SDS011;5043;41.766;26.204;2022-07-29T11:50:26;2.92;;;2.30;;
10007;SDS011;5043;41.766;26.204;2022-07-29T11:52:54;3.83;;;2.15;;
10007;SDS011;5043;41.766;26.204;2022-07-29T11:55:21;4.30;;;2.30;;
10007;SDS011;5043;41.766;26.204;2022-07-29T11:57:49;2.65;;;2.35;;
10007;SDS011;5043;41.766;26.204;2022-07-29T12:00:35;2.40;;;2.20;;
10007;SDS011;5043;41.766;26.204;2022-07-29T12:03:06;4.15;;;2.65;;
10007;SDS011;5043;41.766;26.204;2022-07-29T12:05:37;3.63;;;2.53;;
10007;SDS011;5043;41.766;26.204;2022-07-29T12:08:06;2.63;;;2.13;;
10007;SDS011;5043;41.766;26.204;2022-07-29T12:10:39;4.03;;;2.40;;
10007;SDS011;5043;41.766;26.204;2022-07-29T12:13:06;2.83;;;2.15;;
10007;SDS011;5043;41.766;26.204;2022-07-29T12:15:33;2.67;;;2.50;;
10007;SDS011;5043;41.766;26.204;2022-07-29T12:18:08;2.65;;;2.45;;
10007;SDS011;5043;41.766;26.204;2022-07-29T12:20:42;2.35;;;2.15;;
10007;SDS011;5043;41.766;26.204;2022-07-29T12:23:08;3.03;;;2.30;;
10007;SDS011;5043;41.766;26.204;2022-07-29T12:25:34;4.88;;;2.28;;
10007;SDS011;5043;41.766;26.204;2022-07-29T12:28:06;4.00;;;2.85;;
10007;SDS011;5043;41.766;26.204;2022-07-29T12:30:37;4.10;;;2.47;;
10007;SDS011;5043;41.766;26.204;2022-07-29T12:33:16;6.75;;;2.70;;
10007;SDS011;5043;41.766;26.204;2022-07-29T12:35:50;3.22;;;2.50;;
10007;SDS011;5043;41.766;26.204;2022-07-29T12:38:18;4.35;;;2.38;;
10007;SDS011;5043;41.766;26.204;2022-07-29T12:40:44;3.63;;;2.30;;
10007;SDS011;5043;41.766;26.204;2022-07-29T12:43:12;4.60;;;2.33;;
10007;SDS011;5043;41.766;26.204;2022-07-29T12:45:41;6.47;;;2.58;;
10007;SDS011;5043;41.766;26.204;2022-07-29T12:48:12;2.30;;;2.10;;
10007;SDS011;5043;41.766;26.204;2022-07-29T12:53:24;2.45;;;1.85;;
10007;SDS011;5043;41.766;26.204;2022-07-29T12:55:51;2.25;;;2.05;;
10007;SDS011;5043;41.766;26.204;2022-07-29T12:58:34;5.75;;;2.60;;
10007;SDS011;5043;41.766;26.204;2022-07-29T13:01:11;4.78;;;2.40;;
10007;SDS011;5043;41.766;26.204;2022-07-29T13:03:43;2.72;;;2.53;;
10007;SDS011;5043;41.766;26.204;2022-07-29T13:06:29;3.70;;;2.55;;
10007;SDS011;5043;41.766;26.204;2022-07-29T13:09:14;4.13;;;2.50;;
10007;SDS011;5043;41.766;26.204;2022-07-29T13:11:42;4.15;;;2.58;;
10007;SDS011;5043;41.766;26.204;2022-07-29T13:14:11;3.20;;;2.10;;
10007;SDS011;5043;41.766;26.204;2022-07-29T13:20:05;7.78;;;2.92;;
10007;SDS011;5043;41.766;26.204;2022-07-29T13:22:39;3.78;;;2.40;;
10007;SDS011;5043;41.766;26.204;2022-07-29T13:25:07;6.35;;;2.95;;
10007;SDS011;5043;41.766;26.204;2022-07-29T13:27:35;5.90;;;2.50;;
10007;SDS011;5043;41.766;26.204;2022-07-29T13:30:06;5.10;;;2.80;;
10007;SDS011;5043;41.766;26.204;2022-07-29T13:32:33;6.43;;;2.80;;
10007;SDS011;5043;41.766;26.204;2022-07-29T13:35:00;2.80;;;2.50;;
10007;SDS011;5043;41.766;26.204;2022-07-29T13:37:27;3.90;;;3.60;;
10007;SDS011;5043;41.766;26.204;2022-07-29T13:39:54;13.25;;;7.45;;
10007;SDS011;5043;41.766;26.204;2022-07-29T13:42:21;15.15;;;8.07;;
10007;SDS011;5043;41.766;26.204;2022-07-29T13:44:47;17.65;;;10.82;;
10007;SDS011;5043;41.766;26.204;2022-07-29T13:47:13;12.85;;;7.85;;
10007;SDS011;5043;41.766;26.204;2022-07-29T13:49:41;4.63;;;3.55;;
10007;SDS011;5043;41.766;26.204;2022-07-29T13:52:06;12.82;;;9.40;;
10007;SDS011;5043;41.766;26.204;2022-07-29T13:54:32;6.82;;;3.92;;
10007;SDS011;5043;41.766;26.204;2022-07-29T13:56:59;8.48;;;5.85;;
10007;SDS011;5043;41.766;26.204;2022-07-29T13:59:24;7.40;;;5.90;;
10007;SDS011;5043;41.766;26.204;2022-07-29T14:01:49;8.98;;;5.15;;
10007;SDS011;5043;41.766;26.204;2022-07-29T14:04:15;3.97;;;3.35;;
10007;SDS011;5043;41.766;26.204;2022-07-29T14:06:41;4.45;;;2.70;;
10007;SDS011;5043;41.766;26.204;2022-07-29T14:09:06;3.55;;;2.75;;
10007;SDS011;5043;41.766;26.204;2022-07-29T14:11:33;4.63;;;2.58;;
10007;SDS011;5043;41.766;26.204;2022-07-29T14:13:59;8.27;;;2.22;;
10007;SDS011;5043;41.766;26.204;2022-07-29T14:16:25;6.88;;;3.03;;
10007;SDS011;5043;41.766;26.204;2022-07-29T14:18:50;3.30;;;2.72;;
10007;SDS011;5043;41.766;26.204;2022-07-29T14:21:16;2.75;;;2.10;;
10007;SDS011;5043;41.766;26.204;2022-07-29T14:23:41;2.40;;;2.17;;
10007;SDS011;5043;41.766;26.204;2022-07-29T14:26:07;3.42;;;2.30;;
10007;SDS011;5043;41.766;26.204;2022-07-29T14:28:32;8.43;;;2.47;;
10007;SDS011;5043;41.766;26.204;2022-07-29T14:30:58;2.75;;;2.55;;
10007;SDS011;5043;41.766;26.204;2022-07-29T14:33:23;3.08;;;2.50;;
10007;SDS011;5043;41.766;26.204;2022-07-29T14:35:51;2.63;;;2.42;;
10007;SDS011;5043;41.766;26.204;2022-07-29T14:38:16;3.65;;;2.60;;
10007;SDS011;5043;41.766;26.204;2022-07-29T14:40:42;3.28;;;2.97;;
10007;SDS011;5043;41.766;26.204;2022-07-29T14:43:07;4.82;;;2.40;;
10007;SDS011;5043;41.766;26.204;2022-07-29T14:45:33;4.53;;;2.70;;
10007;SDS011;5043;41.766;26.204;2022-07-29T14:47:58;2.90;;;2.70;;
10007;SDS011;5043;41.766;26.204;2022-07-29T14:50:25;6.50;;;4.65;;
10007;SDS011;5043;41.766;26.204;2022-07-29T14:52:51;4.30;;;2.20;;
10007;SDS011;5043;41.766;26.204;2022-07-29T14:55:20;7.30;;;2.30;;
10007;SDS011;5043;41.766;26.204;2022-07-29T14:57:46;3.03;;;2.50;;
10007;SDS011;5043;41.766;26.204;2022-07-29T15:00:12;2.80;;;2.00;;
10007;SDS011;5043;41.766;26.204;2022-07-29T15:02:38;2.10;;;2.00;;
10007;SDS011;5043;41.766;26.204;2022-07-29T15:05:05;7.75;;;2.20;;
10007;SDS011;5043;41.766;26.204;2022-07-29T15:07:30;2.50;;;2.17;;
10007;SDS011;5043;41.766;26.204;2022-07-29T15:09:56;6.13;;;2.67;;
10007;SDS011;5043;41.766;26.204;2022-07-29T15:12:21;3.65;;;2.10;;
10007;SDS011;5043;41.766;26.204;2022-07-29T15:14:47;2.25;;;2.13;;
10007;SDS011;5043;41.766;26.204;2022-07-29T15:17:12;5.68;;;2.60;;
10007;SDS011;5043;41.766;26.204;2022-07-29T15:19:38;4.10;;;2.00;;
10007;SDS011;5043;41.766;26.204;2022-07-29T15:22:03;5.50;;;2.33;;
10007;SDS011;5043;41.766;26.204;2022-07-29T15:24:30;4.28;;;2.40;;
10007;SDS011;5043;41.766;26.204;2022-07-29T15:26:55;7.63;;;2.35;;
10007;SDS011;5043;41.766;26.204;2022-07-29T15:29:21;2.95;;;2.53;;
10007;SDS011;5043;41.766;26.204;2022-07-29T15:31:47;3.15;;;2.85;;
10007;SDS011;5043;41.766;26.204;2022-07-29T15:34:12;5.65;;;2.83;;
10007;SDS011;5043;41.766;26.204;2022-07-29T15:36:38;6.90;;;2.60;;
10007;SDS011;5043;41.766;26.204;2022-07-29T15:39:03;6.82;;;3.22;;
10007;SDS011;5043;41.766;26.204;2022-07-29T15:41:29;4.07;;;2.40;;
10007;SDS011;5043;41.766;26.204;2022-07-29T15:43:54;5.85;;;2.83;;
10007;SDS011;5043;41.766;26.204;2022-07-29T15:46:20;4.05;;;2.88;;
10007;SDS011;5043;41.766;26.204;2022-07-29T15:49:05;4.43;;;2.60;;
10007;SDS011;5043;41.766;26.204;2022-07-29T15:51:31;3.40;;;2.60;;
10007;SDS011;5043;41.766;26.204;2022-07-29T15:53:57;2.97;;;2.67;;
10007;SDS011;5043;41.766;26.204;2022-07-29T15:56:23;3.35;;;2.55;;
10007;SDS011;5043;41.766;26.204;2022-07-29T15:58:49;4.15;;;2.70;;
10007;SDS011;5043;41.766;26.204;2022-07-29T16:01:15;2.72;;;2.53;;
10007;SDS011;5043;41.766;26.204;2022-07-29T16:03:41;4.88;;;2.45;;
10007;SDS011;5043;41.766;26.204;2022-07-29T16:06:07;4.82;;;2.60;;
10007;SDS011;5043;41.766;26.204;2022-07-29T16:08:32;3.65;;;2.47;;
10007;SDS011;5043;41.766;26.204;2022-07-29T16:10:58;6.65;;;2.95;;